Durham, NC (27701)

11:45 PM EDT on July 01, 2015 (GMT -0400)
Trinity Park | | Change Station
CLOSE
Current Station
Personal Weather Station
Location: Durham, NC
Elevation: 400 ft
Nearby Weather Stations

Elev 400 ft 36.01 °N, 78.91 °W | Updated 1 second ago

Overcast
Overcast
76.1 °F
Feels Like 77 °F
N
1.0
Wind Variable Wind from WSW
Gusts 1.0 mph

Today
High -- | Low -- °F
--% Chance of Precip.
Yesterday
High -- | Low -- °F
Precip. -- in
6:02 AM 8:36 PM
Full, 100% visible
Pressure 29.95 in
Visibility 8.0 miles
Clouds Few 2000 ft
Mostly Cloudy 17000 ft
Overcast 25000 ft
Heat Index 77 °F
Dew Point 70 °F
Humidity 82%
Rainfall 0.00 in
Snow Depth Not available.
UV 0 out of 12
Pollen 3.70 out of 12
Air Quality Not available.
Flu Activity Not available.
METAR KRDU 020251Z 24012KT 8SM FEW020 BKN170 OVC250 26/21 A2996 RMK AO2 RAB29E40 SLP140 P0000 60000 T02560211 51012 $

More Conditions Fewer Conditions

Pressure 29.95 in
Visibility 8.0 miles
Clouds Few 2000 ft
Mostly Cloudy 17000 ft
Overcast 25000 ft
Heat Index 77 °F
Dew Point 70 °F
Humidity 82%
Rainfall 0.00 in
Snow Depth Not available.
UV 0 out of 12
Pollen 3.70 out of 12
Air Quality Not available.
Flu Activity Not available.
METAR KRDU 020251Z 24012KT 8SM FEW020 BKN170 OVC250 26/21 A2996 RMK AO2 RAB29E40 SLP140 P0000 60000 T02560211 51012 $

More Conditions Fewer Conditions

10-Day Weather Forecast

×

Almanac

Astronomy

Jul. 01, 2015 Rise Set
Actual Time
Civil Twilight
Nautical Twilight
Astronomical Twilight
Moon
Length of Visible Light
Length of Day
Tomorrow will be .
, % of the Moon is Illuminated

Today's Extremes

State Highs State Lows

Community

WunderPhotos

Upload Photos

1,834,395 photos uploaded!

WunderBlogs® & News

Nearby

Air Quality

  Air Quality AQ Index Pollutant
Not available.

Snow Depth

Station Depth Elevation

Earthquake Activity

City Distance Mag. Time & Date
Minimum magnitude displayed is 2.5.

Coastal Water Temperatures

Place Temperature

Stations

Nearby Weather Stations

Station Location Temp. Windchill Dew Point Humidity Wind Precip. Elev Updated Type